Time;durP1;ratioP1;P1;durP2;ratioP2;P2;SDS_P1;SDS_P2;PMS_P1;PMS_P2;Temp;Humidity;BMP_temperature;BMP_pressure;BME280_temperature;BME280_humidity;BME280_pressure;Samples;Min_cycle;Max_cycle;Signal;HPM_P1;HPM_P2
2022/06/21 00:00:50;;;;;;;;;1.00;0.67;;;;;23.38;50.57;97967.00;4942662;28;102414;-58
2022/06/21 00:03:19;;;;;;;;;0.00;0.00;;;;;23.38;50.67;97974.47;4913508;28;102567;-57
2022/06/21 00:05:48;;;;;;;;;0.00;0.00;;;;;23.37;50.82;97972.84;4908022;28;102657;-58
2022/06/21 00:08:17;;;;;;;;;1.00;1.00;;;;;23.38;50.69;97982.75;4932862;28;104174;-57
2022/06/21 00:10:44;;;;;;;;;0.67;0.67;;;;;23.36;50.74;97969.25;4914006;28;102635;-59
2022/06/21 00:13:14;;;;;;;;;1.00;1.00;;;;;23.37;50.59;97970.09;4924675;28;102451;-58
2022/06/21 00:15:41;;;;;;;;;1.00;1.00;;;;;23.37;50.49;97959.06;4942262;28;102976;-57
2022/06/21 00:18:12;;;;;;;;;1.00;1.00;;;;;23.36;50.49;97966.50;4944532;28;104081;-57
2022/06/21 00:20:39;;;;;;;;;1.00;1.00;;;;;23.37;50.56;97978.38;4971742;28;102437;-57
2022/06/21 00:23:10;;;;;;;;;0.00;0.00;;;;;23.36;50.65;97982.25;4937866;28;102950;-57
2022/06/21 00:25:37;;;;;;;;;1.00;1.00;;;;;23.36;50.59;97976.72;4932574;28;102219;-58
2022/06/21 00:28:05;;;;;;;;;0.67;0.67;;;;;23.36;50.50;97974.78;4938235;28;104102;-57
2022/06/21 00:30:32;;;;;;;;;1.00;0.33;;;;;23.36;50.69;97977.53;4936467;28;102180;-57
2022/06/21 00:32:59;;;;;;;;;0.67;0.67;;;;;23.36;50.57;97973.97;4909420;28;102481;-57
2022/06/21 00:35:26;;;;;;;;;1.00;1.00;;;;;23.36;50.57;97983.06;4954406;28;102431;-57
2022/06/21 00:37:53;;;;;;;;;0.00;0.00;;;;;23.36;50.63;97987.75;4942168;28;110228;-58
2022/06/21 00:40:28;;;;;;;;;0.00;0.00;;;;;23.35;50.58;97980.59;4962353;28;102409;-57
2022/06/21 00:43:07;;;;;;;;;1.00;1.00;;;;;23.35;50.62;97988.88;4909305;28;102290;-57
2022/06/21 00:45:42;;;;;;;;;0.00;0.00;;;;;23.34;50.48;97977.00;4919685;28;102281;-57
2022/06/21 00:48:18;;;;;;;;;0.67;0.67;;;;;23.35;50.48;97988.88;4927708;28;104124;-57
2022/06/21 00:50:52;;;;;;;;;0.33;0.33;;;;;23.33;50.41;97980.88;4969671;28;103200;-57
2022/06/21 00:53:35;;;;;;;;;1.00;1.00;;;;;23.34;50.60;97984.47;4955350;28;102465;-58
2022/06/21 00:56:06;;;;;;;;;0.00;0.00;;;;;23.35;50.51;97978.66;4917825;28;102212;-57
2022/06/21 00:58:33;;;;;;;;;0.00;0.00;;;;;23.33;50.60;97975.38;4933890;28;104222;-57
2022/06/21 01:01:05;;;;;;;;;0.50;0.50;;;;;23.33;50.48;97963.50;4916181;28;103092;-57
2022/06/21 01:03:36;;;;;;;;;1.00;1.00;;;;;23.33;50.58;97978.13;4885526;28;102194;-57
2022/06/21 01:06:05;;;;;;;;;0.67;0.67;;;;;23.32;50.57;97976.50;4907551;28;102207;-57
2022/06/21 01:08:35;;;;;;;;;0.00;0.00;;;;;23.32;50.42;97981.19;4907507;28;104205;-57
2022/06/21 01:11:07;;;;;;;;;0.33;0.33;;;;;23.32;50.40;97978.44;4845939;28;102069;-58
2022/06/21 01:13:36;;;;;;;;;1.00;1.00;;;;;23.31;50.18;97983.13;4910357;28;102252;-57
2022/06/21 01:16:03;;;;;;;;;1.00;1.00;;;;;23.31;50.45;97972.09;4922874;28;102888;-58
2022/06/21 01:18:30;;;;;;;;;1.00;1.00;;;;;23.30;50.39;97958.59;4939726;28;105605;-58
2022/06/21 01:20:58;;;;;;;;;1.00;1.00;;;;;23.30;50.27;97959.41;4934931;28;102567;-58
2022/06/21 01:23:50;;;;;;;;;1.00;1.00;;;;;23.29;50.35;97967.97;4936886;28;102528;-57
2022/06/21 01:26:44;;;;;;;;;0.00;0.00;;;;;23.31;50.25;97949.19;4926640;28;105407;-58
2022/06/21 01:29:22;;;;;;;;;0.00;0.00;;;;;23.30;50.21;97959.41;4941717;28;109093;-57
2022/06/21 01:31:49;;;;;;;;;1.00;0.00;;;;;23.30;50.40;97964.09;4923575;28;102219;-57
2022/06/21 01:34:21;;;;;;;;;0.67;0.67;;;;;23.30;50.51;97964.09;4906052;28;102746;-58
2022/06/21 01:36:50;;;;;;;;;0.00;0.00;;;;;23.30;50.46;97969.63;4919158;28;102442;-57
2022/06/21 01:39:24;;;;;;;;;1.00;1.00;;;;;23.29;50.46;97973.50;4924687;28;104174;-58
2022/06/21 01:42:06;;;;;;;;;1.00;1.00;;;;;23.30;50.50;97972.38;4928549;28;102903;-57
2022/06/21 01:44:39;;;;;;;;;1.00;1.00;;;;;23.28;50.29;97967.16;4932396;28;102564;-58
2022/06/21 01:47:14;;;;;;;;;1.00;1.00;;;;;23.28;50.41;97971.88;4913945;28;102665;-58
2022/06/21 01:49:43;;;;;;;;;1.00;1.00;;;;;23.28;50.24;97978.19;4935788;28;104308;-57
2022/06/21 01:52:13;;;;;;;;;1.00;1.00;;;;;23.25;50.34;97973.28;4927835;28;102988;-57
2022/06/21 01:54:44;;;;;;;;;1.00;1.00;;;;;23.28;50.12;97971.88;4920833;28;102340;-58
2022/06/21 01:57:12;;;;;;;;;1.00;1.00;;;;;23.25;50.22;97976.03;4943282;28;102519;-58
2022/06/21 01:59:41;;;;;;;;;1.00;1.00;;;;;23.28;50.25;97977.41;4918965;28;103911;-57
2022/06/21 02:02:11;;;;;;;;;1.00;1.00;;;;;23.28;50.22;97985.69;4939101;28;105476;-57
2022/06/21 02:05:07;;;;;;;;;0.67;0.67;;;;;23.26;49.97;97991.47;4945623;28;102383;-57
2022/06/21 02:07:48;;;;;;;;;0.67;0.67;;;;;23.26;50.08;97990.66;4937517;28;102375;-57
2022/06/21 02:10:27;;;;;;;;;0.67;0.67;;;;;23.26;49.99;97985.13;4936973;28;103740;-57
2022/06/21 02:13:16;;;;;;;;;0.33;0.33;;;;;23.26;49.98;97985.13;4924043;28;102689;-57
2022/06/21 02:15:52;;;;;;;;;1.00;1.00;;;;;23.23;50.66;97988.50;4931110;28;102361;-57
2022/06/21 02:18:19;;;;;;;;;1.00;1.00;;;;;23.24;49.97;98003.91;4955449;28;103023;-57
2022/06/21 02:20:56;;;;;;;;;1.00;1.00;;;;;23.23;50.11;97985.75;4920068;28;103740;-57
2022/06/21 02:23:23;;;;;;;;;1.33;1.33;;;;;23.24;50.16;97998.41;4941966;28;102446;-57
2022/06/21 02:25:53;;;;;;;;;1.00;1.00;;;;;23.23;50.02;97999.53;4939400;28;102016;-57
2022/06/21 02:28:20;;;;;;;;;2.00;2.00;;;;;23.23;49.98;97997.59;4941529;28;102723;-58
2022/06/21 02:30:49;;;;;;;;;1.00;1.00;;;;;23.23;50.02;97996.78;4941789;28;104039;-57
2022/06/21 02:33:21;;;;;;;;;1.00;1.00;;;;;23.24;50.03;97995.63;4937950;28;102329;-58
2022/06/21 02:35:57;;;;;;;;;0.33;0.00;;;;;23.24;49.77;97999.22;4939743;28;102898;-58
2022/06/21 02:38:31;;;;;;;;;1.00;1.00;;;;;23.25;49.88;98011.06;4967466;28;102321;-57
2022/06/21 02:41:03;;;;;;;;;1.00;1.00;;;;;23.25;49.91;98003.63;4960745;28;108880;-57
2022/06/21 02:43:53;;;;;;;;;2.00;2.00;;;;;23.24;49.82;97990.13;4932629;28;102280;-57
2022/06/21 02:46:23;;;;;;;;;1.00;1.00;;;;;23.25;49.76;97991.75;4952949;28;102367;-58
2022/06/21 02:49:10;;;;;;;;;1.00;1.00;;;;;23.24;49.76;97999.22;4941350;28;102189;-57
2022/06/21 02:51:47;;;;;;;;;1.00;0.67;;;;;23.23;49.95;97988.50;4929991;28;108821;-58
2022/06/21 02:54:28;;;;;;;;;0.00;0.00;;;;;23.22;49.67;98007.00;4959788;28;102107;-57
2022/06/21 02:57:01;;;;;;;;;1.00;1.00;;;;;23.23;49.62;97999.53;4941135;28;102340;-57
2022/06/21 02:59:28;;;;;;;;;1.00;1.00;;;;;23.22;49.73;98003.41;4945241;28;102537;-57
2022/06/21 03:02:04;;;;;;;;;1.00;1.00;;;;;23.19;49.59;98002.03;4920736;28;109003;-57
2022/06/21 03:04:42;;;;;;;;;1.33;1.33;;;;;23.21;49.71;98004.53;4927024;28;104155;-58
2022/06/21 03:07:13;;;;;;;;;1.00;1.00;;;;;23.22;49.69;98012.50;4915731;28;102245;-58
2022/06/21 03:09:40;;;;;;;;;1.33;1.00;;;;;23.21;49.72;98010.03;4909959;28;102480;-57
2022/06/21 03:12:08;;;;;;;;;1.00;1.00;;;;;23.22;49.84;98000.66;4939525;28;103964;-57
2022/06/21 03:14:35;;;;;;;;;1.00;1.00;;;;;23.20;49.78;98005.63;4930926;28;102251;-57
2022/06/21 03:17:03;;;;;;;;;1.00;1.00;;;;;23.21;49.80;98012.78;4924262;28;102331;-58
2022/06/21 03:19:39;;;;;;;;;0.33;0.33;;;;;23.21;49.71;98008.09;4926870;28;102442;-58
2022/06/21 03:22:23;;;;;;;;;1.00;1.00;;;;;23.21;49.49;98010.84;4929719;28;108627;-57
2022/06/21 03:24:52;;;;;;;;;1.00;1.00;;;;;23.21;49.72;98004.53;4945015;28;105451;-57
2022/06/21 03:27:24;;;;;;;;;1.00;1.00;;;;;23.19;49.66;97995.72;4937133;28;102521;-57
2022/06/21 03:29:51;;;;;;;;;1.33;1.00;;;;;23.20;49.70;98002.88;4973260;28;102374;-57
2022/06/21 03:32:18;;;;;;;;;0.33;0.33;;;;;23.18;49.60;98005.13;4941077;28;103976;-57
2022/06/21 03:34:46;;;;;;;;;1.00;1.00;;;;;23.17;49.72;98009.81;4934226;28;102534;-57
2022/06/21 03:37:13;;;;;;;;;1.00;0.00;;;;;23.18;49.64;97999.59;4945841;28;103530;-58
2022/06/21 03:42:29;;;;;;;;;0.00;0.00;;;;;23.17;49.61;97996.03;4936595;28;104301;-57
2022/06/21 03:44:58;;;;;;;;;1.00;1.00;;;;;23.18;49.61;97994.09;4953415;28;103231;-57
2022/06/21 03:47:40;;;;;;;;;1.00;1.00;;;;;23.18;49.58;98007.88;4938014;28;102112;-58
2022/06/21 03:50:14;;;;;;;;;1.00;1.00;;;;;23.18;49.69;98010.63;4932504;28;102493;-57
2022/06/21 03:52:44;;;;;;;;;1.00;1.00;;;;;23.18;49.63;98008.69;4935899;28;104254;-57
2022/06/21 03:55:30;;;;;;;;;1.00;1.00;;;;;23.17;49.57;98004.28;4941694;28;103097;-57
2022/06/21 03:58:21;;;;;;;;;0.67;0.67;;;;;23.18;49.34;98016.16;4930341;28;102154;-58
2022/06/21 04:01:00;;;;;;;;;1.00;1.00;;;;;23.18;49.53;98010.63;4936101;28;102120;-57
2022/06/21 04:04:18;;;;;;;;;1.00;1.00;;;;;23.16;49.31;98018.38;4935525;28;109099;-57
2022/06/21 04:06:55;;;;;;;;;1.00;1.00;;;;;23.14;49.56;98013.97;4923410;28;102354;-57
2022/06/21 04:09:28;;;;;;;;;1.00;1.00;;;;;23.15;49.54;98014.78;4955779;28;103251;-57
2022/06/21 04:11:55;;;;;;;;;1.00;1.00;;;;;23.14;49.62;98022.25;4938568;28;102527;-58
2022/06/21 04:14:39;;;;;;;;;1.00;1.00;;;;;23.16;49.54;98018.38;4938099;28;104040;-58
2022/06/21 04:17:18;;;;;;;;;1.33;1.33;;;;;23.13;49.42;98014.28;4947954;28;102650;-57
2022/06/21 04:20:09;;;;;;;;;1.00;1.00;;;;;23.11;49.74;98011.81;4942694;28;102181;-57
2022/06/21 04:22:42;;;;;;;;;0.33;0.33;;;;;23.12;49.41;98013.47;4942760;28;103111;-57
2022/06/21 04:25:14;;;;;;;;;1.00;1.00;;;;;23.12;49.64;98005.19;4938142;28;104106;-57
2022/06/21 04:27:57;;;;;;;;;1.00;1.00;;;;;23.12;49.75;98002.44;4970692;28;102356;-58
2022/06/21 04:30:28;;;;;;;;;2.00;1.67;;;;;23.12;49.59;97999.66;4938393;28;102311;-57
2022/06/21 04:33:16;;;;;;;;;1.00;1.00;;;;;23.10;49.52;98012.94;4976416;28;102719;-57
2022/06/21 04:35:48;;;;;;;;;1.00;1.00;;;;;23.09;49.55;98008.53;4971192;28;108818;-57
2022/06/21 04:38:23;;;;;;;;;0.67;0.67;;;;;23.10;49.59;98015.69;4928651;28;102307;-57
2022/06/21 04:40:59;;;;;;;;;1.00;1.00;;;;;23.09;49.46;98014.06;4943728;28;102602;-57
2022/06/21 04:43:29;;;;;;;;;1.00;1.00;;;;;23.10;49.46;98015.69;4959477;28;102330;-57
2022/06/21 04:46:00;;;;;;;;;1.00;1.00;;;;;23.08;49.52;98012.41;4934838;28;104079;-57
2022/06/21 04:48:38;;;;;;;;;0.67;0.67;;;;;23.10;49.39;98010.16;4959277;28;103226;-58
2022/06/21 04:51:24;;;;;;;;;0.33;0.33;;;;;23.10;49.56;98012.94;4934593;28;102486;-57
2022/06/21 04:53:53;;;;;;;;;2.33;1.67;;;;;23.09;49.53;98035.31;4941309;28;102304;-57
2022/06/21 04:56:20;;;;;;;;;1.00;1.00;;;;;23.08;49.81;98022.63;4942553;28;104131;-57
2022/06/21 04:58:48;;;;;;;;;2.00;2.00;;;;;23.07;49.48;98015.47;4942313;28;102532;-57
2022/06/21 05:01:30;;;;;;;;;1.00;1.00;;;;;23.07;49.48;98021.78;4939852;28;102182;-58
2022/06/21 05:04:18;;;;;;;;;1.00;1.00;;;;;23.09;49.37;98024.28;4934204;28;102486;-57
2022/06/21 05:06:45;;;;;;;;;0.67;0.67;;;;;23.07;49.69;98026.50;4932710;28;108795;-58
2022/06/21 05:09:13;;;;;;;;;1.67;1.00;;;;;23.06;49.64;98022.91;4968208;28;102140;-57
2022/06/21 05:11:40;;;;;;;;;0.33;0.33;;;;;23.09;49.27;98029.78;4972817;28;102496;-57
2022/06/21 05:14:16;;;;;;;;;1.00;1.00;;;;;23.10;49.27;98034.16;4941011;28;102422;-57
2022/06/21 05:16:43;;;;;;;;;0.67;0.67;;;;;23.08;49.28;98030.91;4928813;28;104092;-57
2022/06/21 05:19:18;;;;;;;;;0.00;0.00;;;;;23.08;49.46;98031.72;4939082;28;102502;-57
2022/06/21 05:21:54;;;;;;;;;1.00;1.00;;;;;23.08;49.46;98044.69;4939268;28;102044;-58
2022/06/21 05:24:22;;;;;;;;;0.33;0.33;;;;;23.08;49.44;98044.69;4938262;28;102336;-57
2022/06/21 05:27:04;;;;;;;;;0.67;0.67;;;;;23.07;49.44;98046.63;4977399;28;104090;-57
2022/06/21 05:29:52;;;;;;;;;1.00;1.00;;;;;23.06;49.51;98042.22;4940736;28;103246;-57
2022/06/21 05:32:25;;;;;;;;;0.67;0.67;;;;;23.06;49.48;98047.72;4956330;28;102447;-57
2022/06/21 05:34:56;;;;;;;;;1.00;1.00;;;;;23.06;49.57;98046.91;4935290;28;103892;-57
2022/06/21 05:37:23;;;;;;;;;1.67;1.67;;;;;23.06;49.49;98050.50;4935863;28;104049;-57
2022/06/21 05:39:51;;;;;;;;;1.00;1.00;;;;;23.05;49.50;98059.06;4940166;28;102320;-57
2022/06/21 05:42:19;;;;;;;;;2.00;2.00;;;;;23.05;49.57;98056.31;4968474;28;102244;-57
2022/06/21 05:44:54;;;;;;;;;1.00;0.67;;;;;23.05;49.56;98051.63;4925309;28;102755;-57
2022/06/21 05:47:25;;;;;;;;;1.00;1.00;;;;;23.03;49.46;98062.13;4939937;28;104041;-57
2022/06/21 05:49:53;;;;;;;;;0.67;0.67;;;;;23.03;49.58;98059.34;4936649;28;102142;-57
2022/06/21 05:52:31;;;;;;;;;0.67;0.67;;;;;23.03;49.59;98056.59;4950384;28;102300;-57
2022/06/21 05:55:05;;;;;;;;;1.00;1.00;;;;;23.02;49.53;98057.72;4940808;28;102332;-58
2022/06/21 05:57:53;;;;;;;;;1.33;1.33;;;;;23.04;49.54;98061.00;4928129;28;108862;-57
2022/06/21 06:00:39;;;;;;;;;0.67;0.67;;;;;23.02;49.61;98060.47;4936081;28;102243;-57
2022/06/21 06:03:14;;;;;;;;;1.00;1.00;;;;;23.02;49.50;98068.75;4933137;28;102167;-57
2022/06/21 06:05:41;;;;;;;;;1.00;1.00;;;;;23.04;49.56;98068.47;4972672;28;102455;-58
2022/06/21 06:08:11;;;;;;;;;2.00;2.00;;;;;23.04;49.64;98073.97;4939489;28;104103;-57
2022/06/21 06:10:39;;;;;;;;;3.00;2.00;;;;;23.03;49.52;98075.91;4951301;28;102584;-57
2022/06/21 06:13:09;;;;;;;;;1.67;1.00;;;;;23.05;49.63;98070.09;4937898;28;102057;-57
2022/06/21 06:15:48;;;;;;;;;1.00;1.00;;;;;23.04;49.68;98077.56;4941993;28;102668;-57
2022/06/21 06:18:35;;;;;;;;;0.67;0.67;;;;;23.02;49.71;98071.50;4935533;28;104055;-57
2022/06/21 06:21:29;;;;;;;;;1.67;1.67;;;;;23.02;49.84;98073.44;4936138;28;102086;-58
2022/06/21 06:24:17;;;;;;;;;2.00;1.00;;;;;23.02;49.76;98067.91;4933060;28;101999;-57
2022/06/21 06:26:44;;;;;;;;;2.67;2.00;;;;;23.01;49.67;98072.59;4945684;28;102266;-57
2022/06/21 06:29:23;;;;;;;;;2.00;2.00;;;;;23.03;49.57;98066.81;4935842;28;104021;-58
2022/06/21 06:31:54;;;;;;;;;1.00;0.67;;;;;23.03;49.34;98073.16;4935112;28;102170;-57
2022/06/21 06:34:28;;;;;;;;;3.00;2.67;;;;;23.06;49.25;98071.72;4974866;28;102674;-58
2022/06/21 06:37:06;;;;;;;;;1.00;1.00;;;;;23.05;49.51;98065.41;4939655;28;102289;-57
2022/06/21 06:39:35;;;;;;;;;1.00;1.00;;;;;23.05;49.60;98062.66;4920992;28;108672;-57
2022/06/21 06:42:20;;;;;;;;;1.00;1.00;;;;;23.05;49.55;98056.31;4935916;28;102042;-57
2022/06/21 06:44:49;;;;;;;;;2.00;2.00;;;;;23.05;49.15;98062.66;4941796;28;102360;-57
2022/06/21 06:47:37;;;;;;;;;2.33;2.00;;;;;23.06;49.37;98049.66;4924508;28;102717;-57
2022/06/21 06:50:23;;;;;;;;;1.00;1.00;;;;;23.06;49.41;98058.75;4930148;28;109034;-58
2022/06/21 06:52:53;;;;;;;;;1.67;1.67;;;;;23.07;49.35;98049.38;4940348;28;102118;-57
2022/06/21 06:55:42;;;;;;;;;1.00;1.00;;;;;23.08;49.13;98051.03;4941911;28;102664;-57
2022/06/21 06:58:43;;;;;;;;;1.67;1.67;;;;;23.07;49.20;98052.13;4940468;28;102565;-57
2022/06/21 07:01:15;;;;;;;;;1.00;1.00;;;;;23.08;49.12;98067.56;4940207;28;109704;-57
2022/06/21 07:04:03;;;;;;;;;1.00;1.00;;;;;23.08;49.16;98066.75;4933733;28;101992;-57
2022/06/21 07:06:47;;;;;;;;;0.67;0.67;;;;;23.08;49.02;98075.03;4952092;28;102317;-57
2022/06/21 07:09:21;;;;;;;;;2.00;2.00;;;;;23.08;49.12;98072.25;4929049;28;104120;-57
2022/06/21 07:12:11;;;;;;;;;2.00;2.00;;;;;23.08;49.07;98073.09;4933929;28;104017;-57
2022/06/21 07:14:37;;;;;;;;;1.67;1.67;;;;;23.08;49.03;98073.09;4919872;28;102491;-57
2022/06/21 07:17:42;;;;;;;;;2.00;2.00;;;;;23.08;49.23;98080.53;4924639;28;103229;-58
2022/06/21 07:20:22;;;;;;;;;2.00;2.00;;;;;23.10;48.96;98081.88;4929559;28;102236;-57
2022/06/21 07:22:51;;;;;;;;;1.00;1.00;;;;;23.10;48.88;98081.88;4933509;28;110260;-57
2022/06/21 07:25:34;;;;;;;;;0.67;0.67;;;;;23.11;49.12;98078.00;4938304;28;102258;-57
2022/06/21 07:28:24;;;;;;;;;1.00;1.00;;;;;23.09;49.01;98094.03;4934457;28;102300;-57
2022/06/21 07:30:53;;;;;;;;;1.00;1.00;;;;;23.08;49.04;98084.13;4923534;28;103020;-58
2022/06/21 07:33:31;;;;;;;;;0.67;0.67;;;;;23.08;49.02;98089.63;4937537;28;104188;-58
2022/06/21 07:36:18;;;;;;;;;2.00;1.33;;;;;23.07;48.91;98101.78;4929740;28;102493;-57
2022/06/21 07:38:52;;;;;;;;;2.00;2.00;;;;;23.07;49.04;98093.50;4930669;28;102217;-57
2022/06/21 07:41:29;;;;;;;;;1.00;1.00;;;;;23.07;49.27;98093.50;4940644;28;102638;-58
2022/06/21 07:43:58;;;;;;;;;2.00;2.00;;;;;23.08;48.72;98089.63;4942180;28;104055;-57
2022/06/21 07:46:29;;;;;;;;;2.00;2.00;;;;;23.09;49.09;98094.03;4974465;28;102233;-57
2022/06/21 07:49:28;;;;;;;;;0.67;0.67;;;;;23.09;48.93;98088.53;4941283;28;102347;-58
2022/06/21 07:51:58;;;;;;;;;1.67;1.67;;;;;23.08;48.91;98084.13;4945192;28;102695;-57
2022/06/21 07:54:30;;;;;;;;;1.67;1.67;;;;;23.07;48.95;98085.22;4924987;28;104077;-58
2022/06/21 07:57:19;;;;;;;;;1.00;1.00;;;;;23.08;48.96;98084.13;4970436;28;102454;-57
2022/06/21 07:59:49;;;;;;;;;2.00;2.00;;;;;23.09;48.95;98091.28;4935271;28;101941;-57
2022/06/21 08:08:38;;;;;;;;;1.00;1.00;;;;;23.09;48.89;98084.94;4921618;28;103249;-57
2022/06/21 08:11:18;;;;;;;;;2.00;1.00;;;;;23.07;48.73;98082.47;4939646;28;102232;-57
2022/06/21 08:13:45;;;;;;;;;1.67;1.67;;;;;23.07;48.82;98096.25;4966070;28;102447;-57
2022/06/21 08:16:19;;;;;;;;;1.33;1.33;;;;;23.07;48.95;98081.66;4937925;28;103873;-57
2022/06/21 08:19:24;;;;;;;;;2.00;2.00;;;;;23.08;48.74;98083.28;4944840;28;102585;-58
2022/06/21 08:21:59;;;;;;;;;0.67;0.67;;;;;23.07;48.89;98085.22;4886372;28;104215;-57
2022/06/21 08:24:28;;;;;;;;;1.33;1.00;;;;;23.07;48.89;98087.16;4927320;28;109155;-58
2022/06/21 08:27:22;;;;;;;;;1.67;1.00;;;;;23.07;48.80;98093.50;4943210;28;104070;-57
2022/06/21 08:29:54;;;;;;;;;2.00;2.00;;;;;23.06;48.80;98091.84;4944792;28;102206;-57
2022/06/21 08:32:37;;;;;;;;;2.00;2.00;;;;;23.07;48.81;98088.00;4941940;28;104745;-57
2022/06/21 08:35:27;;;;;;;;;1.00;1.00;;;;;23.06;48.80;98089.09;4944533;28;102631;-57
2022/06/21 08:37:59;;;;;;;;;1.00;1.00;;;;;23.06;48.85;98099.31;4940409;28;108957;-57
2022/06/21 08:40:43;;;;;;;;;1.33;1.33;;;;;23.07;48.82;98101.78;4941350;28;102358;-58
2022/06/21 08:43:10;;;;;;;;;1.67;1.67;;;;;23.07;48.86;98104.53;4946329;28;102360;-58
2022/06/21 08:46:13;;;;;;;;;1.00;1.00;;;;;23.08;48.96;98097.91;4944652;28;102543;-58
2022/06/21 08:48:59;;;;;;;;;1.67;1.00;;;;;23.08;48.88;98103.44;4946009;28;108808;-57
2022/06/21 08:52:15;;;;;;;;;1.00;1.00;;;;;23.09;48.86;98090.47;4945766;28;108867;-57
2022/06/21 08:55:03;;;;;;;;;1.67;1.67;;;;;23.08;48.91;98100.66;4926937;28;102647;-57
2022/06/21 08:57:35;;;;;;;;;2.00;2.00;;;;;23.08;48.99;98106.19;4935199;28;102287;-57
2022/06/21 09:00:14;;;;;;;;;1.00;1.00;;;;;23.08;48.87;98111.69;4936151;28;108588;-57
2022/06/21 09:03:06;;;;;;;;;1.33;1.33;;;;;23.07;48.90;98110.06;4947623;28;102679;-57
2022/06/21 09:06:10;;;;;;;;;1.33;1.33;;;;;23.07;48.86;98111.97;4938854;28;102575;-57
2022/06/21 09:08:49;;;;;;;;;1.00;1.00;;;;;23.06;48.93;98108.41;4937957;28;102160;-59
2022/06/21 09:11:45;;;;;;;;;1.33;1.33;;;;;23.05;49.24;98101.28;4947134;28;104236;-57
2022/06/21 09:14:45;;;;;;;;;1.00;1.00;;;;;23.07;49.00;98107.28;4942895;28;102296;-57
2022/06/21 09:17:21;;;;;;;;;2.00;2.00;;;;;23.07;48.89;98099.03;4964886;28;102524;-58
2022/06/21 09:20:32;;;;;;;;;1.00;1.00;;;;;23.09;48.90;98104.25;4976834;28;102393;-57
2022/06/21 09:23:28;;;;;;;;;0.67;0.67;;;;;23.09;48.92;98113.34;4945922;28;109953;-57
2022/06/21 09:26:01;;;;;;;;;0.67;0.67;;;;;23.09;48.66;98102.31;4942584;28;102219;-57
2022/06/21 09:28:37;;;;;;;;;1.00;1.00;;;;;23.09;48.81;98110.59;4934734;28;102023;-57
2022/06/21 09:31:18;;;;;;;;;2.00;2.00;;;;;23.10;48.89;98114.16;4939236;28;102495;-58
2022/06/21 09:34:00;;;;;;;;;0.67;0.67;;;;;23.09;48.92;98112.53;4916271;28;109236;-57
2022/06/21 09:36:47;;;;;;;;;1.00;1.00;;;;;23.08;48.77;98105.34;4941407;28;104013;-57
2022/06/21 09:39:17;;;;;;;;;1.33;1.33;;;;;23.08;48.89;98117.22;4956408;28;102614;-58
2022/06/21 09:41:50;;;;;;;;;1.33;1.00;;;;;23.09;48.86;98107.84;4968717;28;102863;-57
2022/06/21 09:45:10;;;;;;;;;1.67;1.67;;;;;23.08;48.75;98100.66;4938344;28;104071;-57
2022/06/21 09:47:55;;;;;;;;;1.00;1.00;;;;;23.09;48.73;98102.31;4898427;28;102625;-57
2022/06/21 09:50:42;;;;;;;;;1.00;1.00;;;;;23.11;48.77;98111.09;4915956;28;104794;-57
2022/06/21 09:53:21;;;;;;;;;1.67;1.67;;;;;23.11;48.67;98111.09;4932798;28;102322;-57
2022/06/21 09:56:09;;;;;;;;;1.00;1.00;;;;;23.11;48.78;98096.50;4936832;28;104053;-57
2022/06/21 09:58:46;;;;;;;;;1.00;1.00;;;;;23.12;48.68;98112.75;4936646;28;102369;-57
2022/06/21 10:01:19;;;;;;;;;0.67;0.67;;;;;23.13;48.61;98108.06;4951698;28;102343;-57
2022/06/21 10:03:57;;;;;;;;;2.00;2.00;;;;;23.12;48.60;98101.72;4941203;28;102245;-57
2022/06/21 10:06:35;;;;;;;;;1.00;1.00;;;;;23.12;48.60;98101.72;4921554;28;104095;-57
2022/06/21 10:09:30;;;;;;;;;1.00;1.00;;;;;23.13;48.75;98100.63;4927918;28;103064;-57
2022/06/21 10:12:34;;;;;;;;;1.67;1.67;;;;;23.11;48.57;98105.59;4935468;28;102283;-57
2022/06/21 10:15:29;;;;;;;;;1.00;1.00;;;;;23.12;48.61;98104.47;4920899;28;102674;-57
2022/06/21 10:18:33;;;;;;;;;1.00;1.00;;;;;23.12;48.69;98096.22;4937277;28;108824;-57
2022/06/21 10:21:34;;;;;;;;;0.67;0.33;;;;;23.11;48.65;98108.34;4932220;28;102506;-57
2022/06/21 10:24:22;;;;;;;;;1.00;1.00;;;;;23.12;48.74;98118.28;4940533;28;102418;-57
2022/06/21 10:26:55;;;;;;;;;1.00;1.00;;;;;23.12;48.75;98117.44;4968402;28;102300;-57
2022/06/21 10:29:56;;;;;;;;;2.00;2.00;;;;;23.10;48.83;98117.72;4939947;28;104130;-57
2022/06/21 10:32:36;;;;;;;;;1.00;1.00;;;;;23.10;48.69;98114.97;4928626;28;102389;-57
2022/06/21 10:35:06;;;;;;;;;1.33;0.67;;;;;23.10;48.81;98105.88;4928076;28;105756;-57
2022/06/21 10:37:57;;;;;;;;;1.00;1.00;;;;;23.10;48.67;98109.44;4955931;28;102334;-57
2022/06/21 10:41:02;;;;;;;;;2.00;2.00;;;;;23.11;48.62;98100.06;4939530;28;108834;-57
2022/06/21 10:43:53;;;;;;;;;3.00;2.00;;;;;23.12;48.52;98098.97;4933674;28;104459;-57
2022/06/21 10:46:24;;;;;;;;;0.67;0.67;;;;;23.11;48.51;98100.06;4923027;28;102221;-57
2022/06/21 10:49:16;;;;;;;;;1.67;1.67;;;;;23.12;48.35;98106.41;4934585;28;102523;-57
2022/06/21 10:52:11;;;;;;;;;1.00;1.00;;;;;23.10;48.48;98103.94;4938618;28;108873;-57
2022/06/21 10:54:47;;;;;;;;;1.33;1.33;;;;;23.09;48.50;98105.06;4925782;28;102993;-57
2022/06/21 10:57:31;;;;;;;;;1.00;1.00;;;;;23.11;48.57;98108.34;4941253;28;110866;-57
2022/06/21 11:03:40;;;;;;;;;0.67;0.67;;;;;23.13;48.41;98106.13;4940525;28;108877;-57
2022/06/21 11:06:30;;;;;;;;;2.00;2.00;;;;;23.14;48.49;98093.97;4961212;28;102169;-58
2022/06/21 11:09:05;;;;;;;;;2.67;2.67;;;;;23.16;48.25;98099.19;4926423;28;102272;-57
2022/06/21 11:11:51;;;;;;;;;2.00;1.33;;;;;23.16;48.26;98092.84;4936934;28;102511;-57
2022/06/21 11:14:41;;;;;;;;;0.33;0.33;;;;;23.16;48.26;98101.94;4940105;28;108884;-57
2022/06/21 11:17:25;;;;;;;;;1.67;1.67;;;;;23.15;48.31;98103.06;4940713;28;102285;-57
2022/06/21 11:20:23;;;;;;;;;0.67;0.67;;;;;23.15;48.35;98103.06;4935710;28;102110;-57
2022/06/21 11:23:15;;;;;;;;;1.00;1.00;;;;;23.14;48.18;98109.72;4938741;28;102231;-57
2022/06/21 11:25:52;;;;;;;;;2.00;2.00;;;;;23.13;48.23;98114.41;4933122;28;108645;-57
2022/06/21 11:28:38;;;;;;;;;1.67;1.67;;;;;23.14;48.26;98131.78;4941687;28;102496;-57
2022/06/21 11:31:12;;;;;;;;;1.00;1.00;;;;;23.12;48.49;98129.31;4942855;28;102435;-57
2022/06/21 11:34:02;;;;;;;;;1.00;1.00;;;;;23.12;48.56;98112.75;4947246;28;105189;-57
2022/06/21 11:36:33;;;;;;;;;1.00;1.00;;;;;23.13;48.37;98130.13;4937212;28;108934;-57
2022/06/21 11:39:24;;;;;;;;;1.00;1.00;;;;;23.13;48.48;98130.13;4971788;28;102434;-57
2022/06/21 11:42:16;;;;;;;;;1.00;1.00;;;;;23.13;48.40;98138.41;4943594;28;102374;-58
2022/06/21 11:44:54;;;;;;;;;2.00;1.67;;;;;23.11;48.37;98138.69;4965975;28;102836;-58
2022/06/21 11:47:59;;;;;;;;;2.00;2.00;;;;;23.10;48.56;98137.03;4973641;28;104097;-57
2022/06/21 11:50:28;;;;;;;;;0.67;0.67;;;;;23.10;48.48;98144.47;4937141;28;102378;-57
2022/06/21 11:53:04;;;;;;;;;2.00;2.00;;;;;23.10;48.34;98136.22;4949773;28;102089;-57
2022/06/21 11:55:39;;;;;;;;;2.00;2.00;;;;;23.10;48.53;98141.72;4935998;28;102331;-58
2022/06/21 11:58:27;;;;;;;;;1.67;1.67;;;;;23.09;48.39;98135.41;4968352;28;108858;-57
2022/06/21 12:01:19;;;;;;;;;1.00;1.00;;;;;23.09;48.55;98140.09;4938542;28;102396;-58
2022/06/21 12:04:22;;;;;;;;;1.00;1.00;;;;;23.09;48.29;98134.59;4939193;28;102251;-58
2022/06/21 12:07:09;;;;;;;;;1.33;1.00;;;;;23.07;48.57;98132.13;4939433;28;105559;-57
2022/06/21 12:09:39;;;;;;;;;1.00;1.00;;;;;23.08;48.60;98139.28;4972812;28;108652;-58
2022/06/21 12:12:21;;;;;;;;;1.00;1.00;;;;;23.09;48.56;98134.59;4932391;28;102152;-57
2022/06/21 12:15:26;;;;;;;;;0.67;0.67;;;;;23.08;48.39;98133.78;4934192;28;102179;-57
2022/06/21 12:17:55;;;;;;;;;1.33;1.33;;;;;23.09;48.45;98140.94;4935964;28;102390;-57
2022/06/21 12:20:44;;;;;;;;;1.33;1.00;;;;;23.08;48.30;98133.78;4942093;28;103990;-57
2022/06/21 12:23:36;;;;;;;;;1.00;1.00;;;;;23.08;48.49;98136.53;4935633;28;102243;-58
2022/06/21 12:26:06;;;;;;;;;2.00;2.00;;;;;23.08;48.30;98136.53;4936278;28;102592;-58
2022/06/21 12:28:34;;;;;;;;;2.00;2.00;;;;;23.08;48.45;98139.28;4965895;28;102878;-58